Date,TemperatureHighF,TemperatureAvgF,TemperatureLowF,DewpointHighF,DewpointAvgF,DewpointLowF,HumidityHigh,HumidityAvg,HumidityLow,PressureMaxIn,PressureMinIn,WindSpeedMaxMPH,WindSpeedAvgMPH,GustSpeedMaxMPH,PrecipitationSumIn
2013-2-1,28,23,20,20,17,11,91,76,55,0.00,40.00,13,6,23,0.01
2013-2-2,34,23,-4,16,10,-10,85,59,39,0.00,40.00,9,5,15,0.06
2013-2-3,36,17,-8,14,0,-14,78,52,24,0.00,40.00,8,4,13,0.02
2013-2-4,33,21,-15,8,3,-22,74,46,33,0.00,40.00,12,6,22,0.01
2013-2-5,40,25,-6,20,10,-12,87,56,37,0.00,40.00,6,3,13,0.00
2013-2-6,33,22,-1,26,17,-6,93,80,53,0.00,40.00,8,3,14,0.00
2013-2-7,35,20,-7,15,0,-13,89,51,14,0.00,40.00,6,3,10,0.04
2013-2-8,51,16,-16,17,0,-24,79,56,16,0.00,40.00,5,2,11,0.02
2013-2-9,36,18,2,18,13,-3,90,80,38,0.00,40.00,8,4,20,0.00
2013-2-10,21,14,-8,12,8,-13,86,78,68,0.00,40.00,8,5,14,0.00
2013-2-11,23,9,-8,10,1,-15,82,71,49,0.00,40.00,9,3,14,0.08
2013-2-12,19,5,-21,0,-8,-29,77,57,34,0.00,40.00,8,4,14,0.04
2013-2-13,25,16,5,15,10,0,82,74,61,0.00,40.00,10,5,23,0.00
2013-2-14,26,20,16,18,12,4,87,70,42,0.00,40.00,13,6,22,0.01
2013-2-15,24,17,13,13,8,3,87,67,43,0.00,40.00,14,6,28,0.04
2013-2-16,36,22,-7,13,6,-13,86,53,34,0.00,40.00,11,6,23,0.03
2013-2-17,41,24,-13,16,2,-20,83,44,19,0.00,40.00,13,7,27,0.03
2013-2-18,20,14,-13,11,4,-20,87,65,38,0.00,40.00,12,6,20,0.01
2013-2-19,44,14,-23,16,-11,-32,72,41,7,0.00,40.00,6,3,11,0.00
2013-2-20,39,24,-2,18,6,-7,87,52,22,0.00,40.00,10,5,19,0.00
2013-2-21,26,19,11,17,12,6,91,75,60,0.00,40.00,11,4,17,0.04
2013-2-22,24,14,-9,11,2,-15,83,61,33,0.00,40.00,10,5,19,0.02
2013-2-23,29,18,2,18,9,-4,89,70,42,0.00,40.00,9,4,17,0.01
2013-2-24,21,15,-2,12,6,-6,89,70,54,0.00,40.00,13,7,24,0.00
2013-2-25,26,12,-15,7,-2,-23,78,56,34,0.00,40.00,8,4,16,0.03
2013-2-26,22,13,0,11,6,-5,86,73,58,0.00,40.00,14,5,25,0.01
2013-2-27,22,12,-16,5,-3,-23,80,53,25,0.00,40.00,9,5,17,0.01
2013-2-28,24,11,-18,14,0,-26,88,64,38,0.00,40.00,9,5,20,0.01